sensor_id;sensor_type;location;lat;lon;timestamp;P1;durP1;ratioP1;P2;durP2;ratioP2
11334;SDS011;5722;42.620;23.374;2023-04-15T00:01:11;10.60;;;6.67;;
11334;SDS011;5722;42.620;23.374;2023-04-15T00:03:45;11.50;;;6.47;;
11334;SDS011;5722;42.620;23.374;2023-04-15T00:06:15;8.70;;;6.10;;
11334;SDS011;5722;42.620;23.374;2023-04-15T00:08:44;11.43;;;5.70;;
11334;SDS011;5722;42.620;23.374;2023-04-15T00:11:16;6.80;;;4.87;;
11334;SDS011;5722;42.620;23.374;2023-04-15T00:13:45;6.47;;;4.20;;
11334;SDS011;5722;42.620;23.374;2023-04-15T00:16:15;5.20;;;4.13;;
11334;SDS011;5722;42.620;23.374;2023-04-15T00:18:46;5.37;;;3.70;;
11334;SDS011;5722;42.620;23.374;2023-04-15T00:21:16;6.07;;;3.70;;
11334;SDS011;5722;42.620;23.374;2023-04-15T00:23:45;5.57;;;3.50;;
11334;SDS011;5722;42.620;23.374;2023-04-15T00:26:18;6.13;;;4.03;;
11334;SDS011;5722;42.620;23.374;2023-04-15T00:28:47;6.57;;;4.30;;
11334;SDS011;5722;42.620;23.374;2023-04-15T00:31:16;10.43;;;4.97;;
11334;SDS011;5722;42.620;23.374;2023-04-15T00:33:45;7.43;;;5.37;;
11334;SDS011;5722;42.620;23.374;2023-04-15T00:36:14;7.53;;;4.53;;
11334;SDS011;5722;42.620;23.374;2023-04-15T00:38:41;6.30;;;4.20;;
11334;SDS011;5722;42.620;23.374;2023-04-15T00:41:10;6.93;;;4.10;;
11334;SDS011;5722;42.620;23.374;2023-04-15T00:43:39;6.17;;;4.53;;
11334;SDS011;5722;42.620;23.374;2023-04-15T00:46:09;8.77;;;4.60;;
11334;SDS011;5722;42.620;23.374;2023-04-15T00:48:38;6.33;;;4.30;;
11334;SDS011;5722;42.620;23.374;2023-04-15T00:51:07;5.87;;;4.50;;
11334;SDS011;5722;42.620;23.374;2023-04-15T00:53:40;6.13;;;4.60;;
11334;SDS011;5722;42.620;23.374;2023-04-15T00:56:08;5.77;;;4.33;;
11334;SDS011;5722;42.620;23.374;2023-04-15T00:58:50;6.77;;;4.10;;
11334;SDS011;5722;42.620;23.374;2023-04-15T01:01:18;6.53;;;4.30;;
11334;SDS011;5722;42.620;23.374;2023-04-15T01:03:48;5.13;;;3.90;;
11334;SDS011;5722;42.620;23.374;2023-04-15T01:06:16;6.60;;;4.30;;
11334;SDS011;5722;42.620;23.374;2023-04-15T01:08:45;7.33;;;3.93;;
11334;SDS011;5722;42.620;23.374;2023-04-15T01:11:16;7.93;;;4.40;;
11334;SDS011;5722;42.620;23.374;2023-04-15T01:13:47;7.27;;;4.00;;
11334;SDS011;5722;42.620;23.374;2023-04-15T01:16:18;7.77;;;4.33;;
11334;SDS011;5722;42.620;23.374;2023-04-15T01:18:52;7.70;;;4.13;;
11334;SDS011;5722;42.620;23.374;2023-04-15T01:21:20;5.03;;;3.70;;
11334;SDS011;5722;42.620;23.374;2023-04-15T01:23:49;7.73;;;3.83;;
11334;SDS011;5722;42.620;23.374;2023-04-15T01:26:18;6.73;;;3.73;;
11334;SDS011;5722;42.620;23.374;2023-04-15T01:28:45;4.73;;;3.57;;
11334;SDS011;5722;42.620;23.374;2023-04-15T01:31:13;6.13;;;3.70;;
11334;SDS011;5722;42.620;23.374;2023-04-15T01:33:41;5.03;;;3.60;;
11334;SDS011;5722;42.620;23.374;2023-04-15T01:36:09;5.13;;;3.70;;
11334;SDS011;5722;42.620;23.374;2023-04-15T01:38:36;6.50;;;4.30;;
11334;SDS011;5722;42.620;23.374;2023-04-15T01:41:08;6.97;;;3.70;;
11334;SDS011;5722;42.620;23.374;2023-04-15T01:43:37;5.90;;;3.63;;
11334;SDS011;5722;42.620;23.374;2023-04-15T01:46:06;6.57;;;4.27;;
11334;SDS011;5722;42.620;23.374;2023-04-15T01:48:34;6.77;;;4.10;;
11334;SDS011;5722;42.620;23.374;2023-04-15T01:51:03;4.67;;;3.53;;
11334;SDS011;5722;42.620;23.374;2023-04-15T01:53:30;7.57;;;3.97;;
11334;SDS011;5722;42.620;23.374;2023-04-15T01:55:58;6.43;;;4.37;;
11334;SDS011;5722;42.620;23.374;2023-04-15T01:58:25;6.27;;;4.00;;
11334;SDS011;5722;42.620;23.374;2023-04-15T02:00:58;7.43;;;4.60;;
11334;SDS011;5722;42.620;23.374;2023-04-15T02:03:28;5.43;;;4.37;;
11334;SDS011;5722;42.620;23.374;2023-04-15T02:05:58;6.07;;;4.33;;
11334;SDS011;5722;42.620;23.374;2023-04-15T02:08:29;6.20;;;4.20;;
11334;SDS011;5722;42.620;23.374;2023-04-15T02:10:59;6.63;;;4.03;;
11334;SDS011;5722;42.620;23.374;2023-04-15T02:13:27;6.00;;;3.90;;
11334;SDS011;5722;42.620;23.374;2023-04-15T02:15:54;6.93;;;3.83;;
11334;SDS011;5722;42.620;23.374;2023-04-15T02:18:22;6.17;;;4.00;;
11334;SDS011;5722;42.620;23.374;2023-04-15T02:20:50;4.93;;;4.20;;
11334;SDS011;5722;42.620;23.374;2023-04-15T02:23:18;5.50;;;4.30;;
11334;SDS011;5722;42.620;23.374;2023-04-15T02:25:46;5.53;;;3.83;;
11334;SDS011;5722;42.620;23.374;2023-04-15T02:28:14;5.57;;;4.10;;
11334;SDS011;5722;42.620;23.374;2023-04-15T02:30:41;6.00;;;4.40;;
11334;SDS011;5722;42.620;23.374;2023-04-15T02:33:13;6.20;;;4.73;;
11334;SDS011;5722;42.620;23.374;2023-04-15T02:35:42;5.97;;;3.90;;
11334;SDS011;5722;42.620;23.374;2023-04-15T02:38:11;7.23;;;4.50;;
11334;SDS011;5722;42.620;23.374;2023-04-15T02:40:38;7.67;;;4.90;;
11334;SDS011;5722;42.620;23.374;2023-04-15T02:43:06;5.30;;;3.83;;
11334;SDS011;5722;42.620;23.374;2023-04-15T02:45:33;9.70;;;4.37;;
11334;SDS011;5722;42.620;23.374;2023-04-15T02:48:04;5.63;;;4.07;;
11334;SDS011;5722;42.620;23.374;2023-04-15T02:50:33;5.87;;;3.70;;
11334;SDS011;5722;42.620;23.374;2023-04-15T02:53:02;5.30;;;4.47;;
11334;SDS011;5722;42.620;23.374;2023-04-15T02:55:33;6.47;;;4.73;;
11334;SDS011;5722;42.620;23.374;2023-04-15T02:58:02;6.17;;;4.87;;
11334;SDS011;5722;42.620;23.374;2023-04-15T03:00:40;7.70;;;4.57;;
11334;SDS011;5722;42.620;23.374;2023-04-15T03:03:08;6.07;;;4.70;;
11334;SDS011;5722;42.620;23.374;2023-04-15T03:05:42;4.80;;;4.07;;
11334;SDS011;5722;42.620;23.374;2023-04-15T03:08:11;6.73;;;4.70;;
11334;SDS011;5722;42.620;23.374;2023-04-15T03:10:42;6.33;;;4.30;;
11334;SDS011;5722;42.620;23.374;2023-04-15T03:13:10;4.83;;;4.20;;
11334;SDS011;5722;42.620;23.374;2023-04-15T03:15:39;5.40;;;3.67;;
11334;SDS011;5722;42.620;23.374;2023-04-15T03:18:07;4.67;;;3.60;;
11334;SDS011;5722;42.620;23.374;2023-04-15T03:20:36;4.93;;;4.03;;
11334;SDS011;5722;42.620;23.374;2023-04-15T03:23:05;4.23;;;3.23;;
11334;SDS011;5722;42.620;23.374;2023-04-15T03:25:34;5.87;;;3.30;;
11334;SDS011;5722;42.620;23.374;2023-04-15T03:28:02;4.60;;;3.20;;
11334;SDS011;5722;42.620;23.374;2023-04-15T03:30:31;4.17;;;3.60;;
11334;SDS011;5722;42.620;23.374;2023-04-15T03:33:00;4.00;;;3.10;;
11334;SDS011;5722;42.620;23.374;2023-04-15T03:35:32;4.13;;;3.30;;
11334;SDS011;5722;42.620;23.374;2023-04-15T03:38:02;4.93;;;3.50;;
11334;SDS011;5722;42.620;23.374;2023-04-15T03:40:30;8.23;;;5.13;;
11334;SDS011;5722;42.620;23.374;2023-04-15T03:43:02;5.03;;;4.40;;
11334;SDS011;5722;42.620;23.374;2023-04-15T03:45:29;6.23;;;4.90;;
11334;SDS011;5722;42.620;23.374;2023-04-15T03:47:58;6.17;;;4.47;;
11334;SDS011;5722;42.620;23.374;2023-04-15T03:50:27;5.73;;;4.17;;
11334;SDS011;5722;42.620;23.374;2023-04-15T03:52:56;12.57;;;6.70;;
11334;SDS011;5722;42.620;23.374;2023-04-15T03:55:27;10.50;;;7.43;;
11334;SDS011;5722;42.620;23.374;2023-04-15T03:57:56;11.40;;;7.00;;
11334;SDS011;5722;42.620;23.374;2023-04-15T04:03:22;11.23;;;7.47;;
11334;SDS011;5722;42.620;23.374;2023-04-15T04:06:03;8.20;;;6.67;;
11334;SDS011;5722;42.620;23.374;2023-04-15T04:08:45;10.13;;;6.70;;
11334;SDS011;5722;42.620;23.374;2023-04-15T04:11:23;9.57;;;6.20;;
11334;SDS011;5722;42.620;23.374;2023-04-15T04:14:04;9.27;;;6.30;;
11334;SDS011;5722;42.620;23.374;2023-04-15T04:16:46;15.73;;;6.50;;
11334;SDS011;5722;42.620;23.374;2023-04-15T04:19:32;10.43;;;7.27;;
11334;SDS011;5722;42.620;23.374;2023-04-15T04:22:03;9.50;;;6.53;;
11334;SDS011;5722;42.620;23.374;2023-04-15T04:24:44;11.60;;;6.90;;
11334;SDS011;5722;42.620;23.374;2023-04-15T04:27:27;8.17;;;6.80;;
11334;SDS011;5722;42.620;23.374;2023-04-15T04:30:17;10.00;;;6.90;;
11334;SDS011;5722;42.620;23.374;2023-04-15T04:32:51;12.23;;;7.80;;
11334;SDS011;5722;42.620;23.374;2023-04-15T04:41:21;12.67;;;7.17;;
11334;SDS011;5722;42.620;23.374;2023-04-15T04:43:50;9.13;;;7.10;;
11334;SDS011;5722;42.620;23.374;2023-04-15T04:46:32;11.87;;;6.50;;
11334;SDS011;5722;42.620;23.374;2023-04-15T04:49:16;8.60;;;5.77;;
11334;SDS011;5722;42.620;23.374;2023-04-15T04:52:00;8.47;;;6.07;;
11334;SDS011;5722;42.620;23.374;2023-04-15T04:54:41;8.83;;;6.53;;
11334;SDS011;5722;42.620;23.374;2023-04-15T05:00:21;8.37;;;6.60;;
11334;SDS011;5722;42.620;23.374;2023-04-15T05:02:59;10.17;;;6.90;;
11334;SDS011;5722;42.620;23.374;2023-04-15T05:05:35;12.80;;;6.53;;
11334;SDS011;5722;42.620;23.374;2023-04-15T05:08:18;8.27;;;6.53;;
11334;SDS011;5722;42.620;23.374;2023-04-15T05:11:02;8.60;;;6.67;;
11334;SDS011;5722;42.620;23.374;2023-04-15T05:13:43;12.47;;;6.87;;
11334;SDS011;5722;42.620;23.374;2023-04-15T05:16:35;10.00;;;6.50;;
11334;SDS011;5722;42.620;23.374;2023-04-15T05:19:14;9.13;;;6.60;;
11334;SDS011;5722;42.620;23.374;2023-04-15T05:21:59;8.73;;;6.90;;
11334;SDS011;5722;42.620;23.374;2023-04-15T05:24:42;9.30;;;7.20;;
11334;SDS011;5722;42.620;23.374;2023-04-15T05:27:11;9.13;;;6.80;;
11334;SDS011;5722;42.620;23.374;2023-04-15T05:29:47;8.70;;;5.47;;
11334;SDS011;5722;42.620;23.374;2023-04-15T05:38:07;7.90;;;5.43;;
11334;SDS011;5722;42.620;23.374;2023-04-15T05:40:40;5.20;;;4.17;;
11334;SDS011;5722;42.620;23.374;2023-04-15T05:43:22;11.07;;;4.10;;
11334;SDS011;5722;42.620;23.374;2023-04-15T05:45:53;4.83;;;3.50;;
11334;SDS011;5722;42.620;23.374;2023-04-15T05:48:34;4.07;;;3.23;;
11334;SDS011;5722;42.620;23.374;2023-04-15T05:51:13;5.37;;;3.97;;
11334;SDS011;5722;42.620;23.374;2023-04-15T05:56:40;11.80;;;4.50;;
11334;SDS011;5722;42.620;23.374;2023-04-15T05:59:15;5.37;;;3.70;;
11334;SDS011;5722;42.620;23.374;2023-04-15T06:01:55;4.73;;;4.10;;
11334;SDS011;5722;42.620;23.374;2023-04-15T06:04:33;5.90;;;4.00;;
11334;SDS011;5722;42.620;23.374;2023-04-15T06:07:08;5.03;;;3.73;;
11334;SDS011;5722;42.620;23.374;2023-04-15T06:09:37;6.97;;;3.97;;
11334;SDS011;5722;42.620;23.374;2023-04-15T06:23:46;4.00;;;2.60;;
11334;SDS011;5722;42.620;23.374;2023-04-15T06:26:14;7.57;;;2.83;;
11334;SDS011;5722;42.620;23.374;2023-04-15T06:28:45;9.23;;;3.67;;
11334;SDS011;5722;42.620;23.374;2023-04-15T06:31:28;4.60;;;3.30;;
11334;SDS011;5722;42.620;23.374;2023-04-15T06:34:04;10.10;;;4.53;;
11334;SDS011;5722;42.620;23.374;2023-04-15T06:36:40;6.40;;;3.67;;
11334;SDS011;5722;42.620;23.374;2023-04-15T06:41:58;3.77;;;2.70;;
11334;SDS011;5722;42.620;23.374;2023-04-15T06:44:29;7.83;;;3.10;;
11334;SDS011;5722;42.620;23.374;2023-04-15T06:47:01;5.90;;;3.00;;
11334;SDS011;5722;42.620;23.374;2023-04-15T06:49:44;4.73;;;3.27;;
11334;SDS011;5722;42.620;23.374;2023-04-15T06:52:28;6.27;;;3.17;;
11334;SDS011;5722;42.620;23.374;2023-04-15T06:54:57;5.63;;;3.17;;
11334;SDS011;5722;42.620;23.374;2023-04-15T06:57:31;6.33;;;3.10;;
11334;SDS011;5722;42.620;23.374;2023-04-15T06:59:59;9.67;;;3.20;;
11334;SDS011;5722;42.620;23.374;2023-04-15T07:02:54;4.93;;;3.33;;
11334;SDS011;5722;42.620;23.374;2023-04-15T07:05:41;8.43;;;3.90;;
11334;SDS011;5722;42.620;23.374;2023-04-15T07:08:09;8.50;;;3.90;;
11334;SDS011;5722;42.620;23.374;2023-04-15T07:10:50;5.23;;;3.47;;
11334;SDS011;5722;42.620;23.374;2023-04-15T07:13:34;4.10;;;3.00;;
11334;SDS011;5722;42.620;23.374;2023-04-15T07:16:08;4.00;;;2.60;;
11334;SDS011;5722;42.620;23.374;2023-04-15T07:18:39;4.30;;;2.87;;
11334;SDS011;5722;42.620;23.374;2023-04-15T07:21:08;3.53;;;2.50;;
11334;SDS011;5722;42.620;23.374;2023-04-15T07:23:56;6.03;;;2.73;;
11334;SDS011;5722;42.620;23.374;2023-04-15T07:26:26;5.90;;;2.63;;
11334;SDS011;5722;42.620;23.374;2023-04-15T07:29:08;5.27;;;2.60;;
11334;SDS011;5722;42.620;23.374;2023-04-15T07:31:37;5.80;;;2.60;;
11334;SDS011;5722;42.620;23.374;2023-04-15T07:34:19;6.17;;;2.70;;
11334;SDS011;5722;42.620;23.374;2023-04-15T07:37:00;5.90;;;2.93;;
11334;SDS011;5722;42.620;23.374;2023-04-15T07:39:40;7.47;;;3.50;;
11334;SDS011;5722;42.620;23.374;2023-04-15T07:42:10;6.90;;;3.33;;
11334;SDS011;5722;42.620;23.374;2023-04-15T07:50:11;6.13;;;3.63;;
11334;SDS011;5722;42.620;23.374;2023-04-15T07:52:44;4.77;;;3.03;;
11334;SDS011;5722;42.620;23.374;2023-04-15T07:55:26;6.80;;;3.70;;
11334;SDS011;5722;42.620;23.374;2023-04-15T07:58:22;5.50;;;3.50;;
11334;SDS011;5722;42.620;23.374;2023-04-15T08:00:55;6.87;;;3.37;;
11334;SDS011;5722;42.620;23.374;2023-04-15T08:03:26;4.07;;;3.20;;
11334;SDS011;5722;42.620;23.374;2023-04-15T08:11:58;4.17;;;3.10;;
11334;SDS011;5722;42.620;23.374;2023-04-15T08:14:28;4.23;;;2.50;;
11334;SDS011;5722;42.620;23.374;2023-04-15T08:16:58;5.10;;;2.50;;
11334;SDS011;5722;42.620;23.374;2023-04-15T08:19:39;5.43;;;2.50;;
11334;SDS011;5722;42.620;23.374;2023-04-15T08:22:21;4.37;;;2.43;;
11334;SDS011;5722;42.620;23.374;2023-04-15T08:25:02;4.03;;;2.40;;
11334;SDS011;5722;42.620;23.374;2023-04-15T08:27:36;4.23;;;2.17;;
11334;SDS011;5722;42.620;23.374;2023-04-15T08:30:11;4.23;;;2.13;;
11334;SDS011;5722;42.620;23.374;2023-04-15T08:32:56;3.73;;;2.07;;
11334;SDS011;5722;42.620;23.374;2023-04-15T08:35:25;3.20;;;2.10;;
11334;SDS011;5722;42.620;23.374;2023-04-15T08:38:14;4.13;;;2.27;;
11334;SDS011;5722;42.620;23.374;2023-04-15T08:40:45;4.20;;;2.17;;
11334;SDS011;5722;42.620;23.374;2023-04-15T08:46:12;6.53;;;2.50;;
11334;SDS011;5722;42.620;23.374;2023-04-15T08:48:39;6.03;;;2.43;;
11334;SDS011;5722;42.620;23.374;2023-04-15T08:51:13;6.23;;;2.30;;
11334;SDS011;5722;42.620;23.374;2023-04-15T08:53:53;3.47;;;2.13;;
11334;SDS011;5722;42.620;23.374;2023-04-15T08:56:39;2.77;;;2.17;;
11334;SDS011;5722;42.620;23.374;2023-04-15T08:59:12;5.40;;;2.23;;
11334;SDS011;5722;42.620;23.374;2023-04-15T09:01:57;2.90;;;1.87;;
11334;SDS011;5722;42.620;23.374;2023-04-15T09:04:35;2.93;;;2.07;;
11334;SDS011;5722;42.620;23.374;2023-04-15T09:07:19;5.63;;;1.77;;
11334;SDS011;5722;42.620;23.374;2023-04-15T09:09:48;3.87;;;1.70;;
11334;SDS011;5722;42.620;23.374;2023-04-15T09:12:32;3.27;;;1.80;;
11334;SDS011;5722;42.620;23.374;2023-04-15T09:15:03;2.20;;;1.60;;
11334;SDS011;5722;42.620;23.374;2023-04-15T09:20:50;5.33;;;1.90;;
11334;SDS011;5722;42.620;23.374;2023-04-15T09:23:22;4.57;;;1.80;;
11334;SDS011;5722;42.620;23.374;2023-04-15T09:25:58;3.90;;;2.00;;
11334;SDS011;5722;42.620;23.374;2023-04-15T09:28:47;3.00;;;1.70;;
11334;SDS011;5722;42.620;23.374;2023-04-15T09:31:41;2.50;;;1.50;;
11334;SDS011;5722;42.620;23.374;2023-04-15T09:34:22;6.00;;;1.50;;
11334;SDS011;5722;42.620;23.374;2023-04-15T09:37:22;2.20;;;1.57;;
11334;SDS011;5722;42.620;23.374;2023-04-15T09:40:01;2.57;;;1.70;;
11334;SDS011;5722;42.620;23.374;2023-04-15T09:45:21;4.57;;;1.53;;
11334;SDS011;5722;42.620;23.374;2023-04-15T09:48:17;3.13;;;1.80;;
11334;SDS011;5722;42.620;23.374;2023-04-15T09:50:56;7.17;;;1.60;;
11334;SDS011;5722;42.620;23.374;2023-04-15T09:53:28;2.53;;;1.70;;
11334;SDS011;5722;42.620;23.374;2023-04-15T09:55:58;2.28;;;1.40;;
11334;SDS011;5722;42.620;23.374;2023-04-15T09:58:40;2.17;;;1.30;;
11334;SDS011;5722;42.620;23.374;2023-04-15T10:01:09;2.28;;;1.25;;
11334;SDS011;5722;42.620;23.374;2023-04-15T10:03:49;2.03;;;1.60;;
11334;SDS011;5722;42.620;23.374;2023-04-15T10:06:31;3.93;;;1.90;;
11334;SDS011;5722;42.620;23.374;2023-04-15T10:11:50;1.52;;;1.33;;
11334;SDS011;5722;42.620;23.374;2023-04-15T10:14:21;4.95;;;2.00;;
11334;SDS011;5722;42.620;23.374;2023-04-15T10:16:52;2.27;;;1.30;;
11334;SDS011;5722;42.620;23.374;2023-04-15T10:19:25;3.08;;;1.60;;
11334;SDS011;5722;42.620;23.374;2023-04-15T10:22:07;2.38;;;1.40;;
11334;SDS011;5722;42.620;23.374;2023-04-15T10:24:34;3.50;;;1.77;;
11334;SDS011;5722;42.620;23.374;2023-04-15T10:30:04;8.68;;;1.65;;
11334;SDS011;5722;42.620;23.374;2023-04-15T10:32:41;2.95;;;1.63;;
11334;SDS011;5722;42.620;23.374;2023-04-15T10:35:23;2.58;;;1.60;;
11334;SDS011;5722;42.620;23.374;2023-04-15T10:40:51;2.58;;;1.65;;
11334;SDS011;5722;42.620;23.374;2023-04-15T10:43:23;5.18;;;1.58;;
11334;SDS011;5722;42.620;23.374;2023-04-15T10:45:56;2.15;;;1.40;;
11334;SDS011;5722;42.620;23.374;2023-04-15T10:48:27;2.30;;;1.30;;
11334;SDS011;5722;42.620;23.374;2023-04-15T10:50:56;2.70;;;1.25;;
11334;SDS011;5722;42.620;23.374;2023-04-15T10:53:33;3.45;;;2.65;;
11334;SDS011;5722;42.620;23.374;2023-04-15T10:56:09;2.42;;;1.27;;
11334;SDS011;5722;42.620;23.374;2023-04-15T10:58:42;2.30;;;1.48;;
11334;SDS011;5722;42.620;23.374;2023-04-15T11:12:34;2.78;;;1.45;;
11334;SDS011;5722;42.620;23.374;2023-04-15T11:17:44;1.48;;;1.20;;
11334;SDS011;5722;42.620;23.374;2023-04-15T11:20:23;4.82;;;1.63;;
11334;SDS011;5722;42.620;23.374;2023-04-15T11:22:53;2.80;;;1.25;;
11334;SDS011;5722;42.620;23.374;2023-04-15T11:30:55;2.42;;;1.02;;
11334;SDS011;5722;42.620;23.374;2023-04-15T11:33:25;1.20;;;0.80;;
11334;SDS011;5722;42.620;23.374;2023-04-15T11:36:08;3.75;;;1.10;;
11334;SDS011;5722;42.620;23.374;2023-04-15T11:38:43;1.42;;;1.10;;
11334;SDS011;5722;42.620;23.374;2023-04-15T11:41:11;1.20;;;0.70;;
11334;SDS011;5722;42.620;23.374;2023-04-15T11:43:39;3.20;;;1.33;;
11334;SDS011;5722;42.620;23.374;2023-04-15T11:46:13;2.45;;;1.30;;
11334;SDS011;5722;42.620;23.374;2023-04-15T11:48:42;5.20;;;1.40;;
11334;SDS011;5722;42.620;23.374;2023-04-15T11:51:17;1.85;;;1.30;;
11334;SDS011;5722;42.620;23.374;2023-04-15T11:56:29;3.05;;;1.10;;
11334;SDS011;5722;42.620;23.374;2023-04-15T11:58:57;3.03;;;1.20;;
11334;SDS011;5722;42.620;23.374;2023-04-15T12:01:40;2.33;;;1.30;;
11334;SDS011;5722;42.620;23.374;2023-04-15T12:04:13;2.05;;;1.10;;
11334;SDS011;5722;42.620;23.374;2023-04-15T12:06:50;2.70;;;0.90;;
11334;SDS011;5722;42.620;23.374;2023-04-15T12:41:06;1.50;;;0.70;;
11334;SDS011;5722;42.620;23.374;2023-04-15T12:43:35;2.38;;;0.70;;
11334;SDS011;5722;42.620;23.374;2023-04-15T12:46:21;2.22;;;0.95;;
11334;SDS011;5722;42.620;23.374;2023-04-15T12:49:19;1.95;;;1.00;;
11334;SDS011;5722;42.620;23.374;2023-04-15T12:51:47;2.67;;;1.00;;
11334;SDS011;5722;42.620;23.374;2023-04-15T12:54:28;1.95;;;1.05;;
11334;SDS011;5722;42.620;23.374;2023-04-15T12:59:42;1.52;;;0.95;;
11334;SDS011;5722;42.620;23.374;2023-04-15T13:02:09;2.97;;;0.93;;
11334;SDS011;5722;42.620;23.374;2023-04-15T13:04:37;1.58;;;1.00;;
11334;SDS011;5722;42.620;23.374;2023-04-15T13:07:05;1.27;;;1.05;;
11334;SDS011;5722;42.620;23.374;2023-04-15T13:09:35;1.02;;;0.68;;
11334;SDS011;5722;42.620;23.374;2023-04-15T13:12:06;0.90;;;0.65;;
11334;SDS011;5722;42.620;23.374;2023-04-15T13:14:39;3.85;;;1.00;;
11334;SDS011;5722;42.620;23.374;2023-04-15T13:17:29;1.45;;;0.93;;
11334;SDS011;5722;42.620;23.374;2023-04-15T13:19:58;1.40;;;0.95;;
11334;SDS011;5722;42.620;23.374;2023-04-15T13:22:32;5.10;;;1.00;;
11334;SDS011;5722;42.620;23.374;2023-04-15T13:25:05;2.97;;;0.90;;
11334;SDS011;5722;42.620;23.374;2023-04-15T13:27:43;0.63;;;0.52;;
11334;SDS011;5722;42.620;23.374;2023-04-15T13:30:15;1.38;;;0.77;;
11334;SDS011;5722;42.620;23.374;2023-04-15T13:32:49;1.35;;;0.90;;
11334;SDS011;5722;42.620;23.374;2023-04-15T13:35:18;0.95;;;0.85;;
11334;SDS011;5722;42.620;23.374;2023-04-15T13:37:46;2.10;;;0.93;;
11334;SDS011;5722;42.620;23.374;2023-04-15T13:40:26;2.22;;;0.82;;
11334;SDS011;5722;42.620;23.374;2023-04-15T13:42:58;1.10;;;0.80;;
11334;SDS011;5722;42.620;23.374;2023-04-15T13:45:40;1.98;;;0.90;;
11334;SDS011;5722;42.620;23.374;2023-04-15T13:48:14;1.88;;;1.35;;
11334;SDS011;5722;42.620;23.374;2023-04-15T13:50:41;1.23;;;0.80;;
11334;SDS011;5722;42.620;23.374;2023-04-15T13:53:15;1.77;;;0.90;;
11334;SDS011;5722;42.620;23.374;2023-04-15T13:55:48;3.17;;;0.80;;
11334;SDS011;5722;42.620;23.374;2023-04-15T13:58:29;1.80;;;1.00;;
11334;SDS011;5722;42.620;23.374;2023-04-15T14:01:00;2.70;;;0.70;;
11334;SDS011;5722;42.620;23.374;2023-04-15T14:06:16;1.90;;;1.15;;
11334;SDS011;5722;42.620;23.374;2023-04-15T14:08:46;2.20;;;1.20;;
11334;SDS011;5722;42.620;23.374;2023-04-15T14:11:20;1.42;;;0.90;;
11334;SDS011;5722;42.620;23.374;2023-04-15T14:13:50;1.73;;;0.80;;
11334;SDS011;5722;42.620;23.374;2023-04-15T14:16:27;1.73;;;0.93;;
11334;SDS011;5722;42.620;23.374;2023-04-15T14:19:14;3.53;;;0.90;;
11334;SDS011;5722;42.620;23.374;2023-04-15T14:22:10;1.17;;;0.70;;
11334;SDS011;5722;42.620;23.374;2023-04-15T14:24:39;2.30;;;0.80;;
11334;SDS011;5722;42.620;23.374;2023-04-15T14:27:23;1.52;;;0.80;;
11334;SDS011;5722;42.620;23.374;2023-04-15T14:29:58;1.40;;;0.70;;
11334;SDS011;5722;42.620;23.374;2023-04-15T14:32:26;2.47;;;0.70;;
11334;SDS011;5722;42.620;23.374;2023-04-15T14:35:11;1.00;;;0.70;;
11334;SDS011;5722;42.620;23.374;2023-04-15T14:37:46;4.35;;;1.48;;
11334;SDS011;5722;42.620;23.374;2023-04-15T14:40:25;2.08;;;0.82;;
11334;SDS011;5722;42.620;23.374;2023-04-15T14:43:07;1.20;;;0.90;;
11334;SDS011;5722;42.620;23.374;2023-04-15T14:45:37;1.48;;;0.90;;
11334;SDS011;5722;42.620;23.374;2023-04-15T14:48:18;1.63;;;0.80;;
11334;SDS011;5722;42.620;23.374;2023-04-15T14:50:45;1.40;;;0.88;;
11334;SDS011;5722;42.620;23.374;2023-04-15T14:53:33;1.83;;;1.00;;
11334;SDS011;5722;42.620;23.374;2023-04-15T14:56:08;1.92;;;1.00;;
11334;SDS011;5722;42.620;23.374;2023-04-15T14:58:37;2.28;;;1.10;;
11334;SDS011;5722;42.620;23.374;2023-04-15T15:01:06;2.85;;;1.20;;
11334;SDS011;5722;42.620;23.374;2023-04-15T15:03:38;1.38;;;0.80;;
11334;SDS011;5722;42.620;23.374;2023-04-15T15:06:05;2.45;;;0.88;;
11334;SDS011;5722;42.620;23.374;2023-04-15T15:08:57;1.42;;;0.70;;
11334;SDS011;5722;42.620;23.374;2023-04-15T15:11:26;2.20;;;0.90;;
11334;SDS011;5722;42.620;23.374;2023-04-15T15:14:03;1.88;;;0.88;;
11334;SDS011;5722;42.620;23.374;2023-04-15T15:16:43;2.35;;;0.93;;
11334;SDS011;5722;42.620;23.374;2023-04-15T15:19:24;1.20;;;0.70;;
11334;SDS011;5722;42.620;23.374;2023-04-15T15:22:02;3.25;;;0.95;;
11334;SDS011;5722;42.620;23.374;2023-04-15T15:24:33;1.30;;;0.98;;
11334;SDS011;5722;42.620;23.374;2023-04-15T15:27:00;2.10;;;0.80;;
11334;SDS011;5722;42.620;23.374;2023-04-15T15:29:29;8.45;;;2.67;;
11334;SDS011;5722;42.620;23.374;2023-04-15T15:32:11;9.82;;;3.00;;
11334;SDS011;5722;42.620;23.374;2023-04-15T15:34:44;3.20;;;1.75;;
11334;SDS011;5722;42.620;23.374;2023-04-15T15:37:16;1.52;;;1.08;;
11334;SDS011;5722;42.620;23.374;2023-04-15T15:39:51;2.10;;;1.38;;
11334;SDS011;5722;42.620;23.374;2023-04-15T15:42:23;1.90;;;1.10;;
11334;SDS011;5722;42.620;23.374;2023-04-15T15:45:06;5.13;;;1.10;;
11334;SDS011;5722;42.620;23.374;2023-04-15T15:47:40;1.48;;;1.10;;
11334;SDS011;5722;42.620;23.374;2023-04-15T15:50:15;3.90;;;1.20;;
11334;SDS011;5722;42.620;23.374;2023-04-15T15:52:48;1.58;;;1.00;;
11334;SDS011;5722;42.620;23.374;2023-04-15T15:55:17;4.25;;;1.20;;
11334;SDS011;5722;42.620;23.374;2023-04-15T15:57:45;3.33;;;1.10;;
11334;SDS011;5722;42.620;23.374;2023-04-15T16:00:16;1.58;;;1.20;;
11334;SDS011;5722;42.620;23.374;2023-04-15T16:02:45;1.23;;;1.02;;
11334;SDS011;5722;42.620;23.374;2023-04-15T16:05:17;2.60;;;1.20;;
11334;SDS011;5722;42.620;23.374;2023-04-15T16:07:50;2.47;;;1.20;;
11334;SDS011;5722;42.620;23.374;2023-04-15T16:10:24;2.58;;;1.13;;
11334;SDS011;5722;42.620;23.374;2023-04-15T16:12:59;2.70;;;1.35;;
11334;SDS011;5722;42.620;23.374;2023-04-15T16:15:27;1.80;;;1.17;;
11334;SDS011;5722;42.620;23.374;2023-04-15T16:17:59;2.38;;;1.70;;
11334;SDS011;5722;42.620;23.374;2023-04-15T16:20:28;2.55;;;2.00;;
11334;SDS011;5722;42.620;23.374;2023-04-15T16:23:10;3.17;;;2.38;;
11334;SDS011;5722;42.620;23.374;2023-04-15T16:25:49;4.72;;;2.70;;
11334;SDS011;5722;42.620;23.374;2023-04-15T16:28:21;6.75;;;3.10;;
11334;SDS011;5722;42.620;23.374;2023-04-15T16:31:02;5.45;;;3.10;;
11334;SDS011;5722;42.620;23.374;2023-04-15T16:33:34;3.13;;;2.28;;
11334;SDS011;5722;42.620;23.374;2023-04-15T16:38:58;9.15;;;6.13;;
11334;SDS011;5722;42.620;23.374;2023-04-15T16:41:31;19.27;;;14.00;;
11334;SDS011;5722;42.620;23.374;2023-04-15T16:44:05;8.38;;;5.75;;
11334;SDS011;5722;42.620;23.374;2023-04-15T16:46:46;8.85;;;5.57;;
11334;SDS011;5722;42.620;23.374;2023-04-15T16:49:26;8.10;;;5.93;;
11334;SDS011;5722;42.620;23.374;2023-04-15T16:52:06;4.00;;;2.78;;
11334;SDS011;5722;42.620;23.374;2023-04-15T16:54:37;7.32;;;2.65;;
11334;SDS011;5722;42.620;23.374;2023-04-15T16:57:07;4.65;;;2.65;;
11334;SDS011;5722;42.620;23.374;2023-04-15T16:59:40;5.00;;;3.20;;
11334;SDS011;5722;42.620;23.374;2023-04-15T17:02:08;4.43;;;3.00;;
11334;SDS011;5722;42.620;23.374;2023-04-15T17:04:37;4.47;;;3.05;;
11334;SDS011;5722;42.620;23.374;2023-04-15T17:07:11;7.13;;;3.83;;
11334;SDS011;5722;42.620;23.374;2023-04-15T17:09:47;9.30;;;5.88;;
11334;SDS011;5722;42.620;23.374;2023-04-15T17:12:21;7.10;;;5.53;;
11334;SDS011;5722;42.620;23.374;2023-04-15T17:14:57;5.28;;;4.20;;
11334;SDS011;5722;42.620;23.374;2023-04-15T17:17:31;5.15;;;2.95;;
11334;SDS011;5722;42.620;23.374;2023-04-15T17:22:45;6.97;;;4.10;;
11334;SDS011;5722;42.620;23.374;2023-04-15T17:25:26;6.53;;;4.00;;
11334;SDS011;5722;42.620;23.374;2023-04-15T17:28:09;5.40;;;4.17;;
11334;SDS011;5722;42.620;23.374;2023-04-15T17:30:50;5.13;;;3.70;;
11334;SDS011;5722;42.620;23.374;2023-04-15T17:33:35;6.17;;;3.17;;
11334;SDS011;5722;42.620;23.374;2023-04-15T17:36:05;7.80;;;4.00;;